UAAH/BXH METAR and TAF weather

Enter ICAO airport designator
Station Type Date Time Source
UAAH METAR 2022/01/26 08:30 UTC NOAA

UAAH 260830Z 03002MPS 9999 FEW007 M13/M15 Q1030 NOSIG RMK QFE734/0979


Station Type Date Time Source
UAAH Decoded METAR 2022/01/26 08:30 UTC NOAA

Station name not available
Jan 26, 2022 - 03:30 AM EST / 2022.01.26 0830 UTC
Wind: from the NNE (030 degrees) at 4 MPH (4 KT):0
Visibility: greater than 7 mile(s):0
Sky conditions: mostly clear
Temperature: 8 F (-13 C)
Dew Point: 5 F (-15 C)
Relative Humidity: 84%
Pressure (altimeter): 30.42 in. Hg (1030 hPa)
ob: UAAH 260830Z 03002MPS 9999 FEW007 M13/M15 Q1030 NOSIG RMK QFE734/0979
cycle: 8

Station Type Date Time Source
UAAH TAF 2021/05/11 09:06 UTC NOAA

TAF
AMD TAF
AMD UAAH 111100Z 1109/1218 CNL

Example: see airport list